• Join FlightAware (Why Join?)
  • Login
  • US Flag 
02:59PM EDT


 

Airport Tracker/Info


-or-


 

Live Flight TrackerFlight Track Log ✈ SWA902 ✈ 15-Jun-2013 ✈ KPHX - KLAX

Flight Track Log - Related Links

Times and Time Zones

All times are in EDT time to prevent confusion due to time zone crossing. See the SWA902 flight status page for this flight to view local times or setup timezone preferences in your user account.

Time Position Orientation Groundspeed Altitude Reporting Facility
EDT Latitude Longitude Course Direction KTS MPH feet Rate Location/Type
06:22PM 33.3994 -112.1322 251° West 213 245 5,600  Level Albuquerque Center
06:23PM 33.4025 -112.2144 273° West 244 281 9,100 3,180 Climbing Albuquerque Center
06:24PM 33.4111 -112.3078 276° West 278 320 12,100 2,820 Climbing Albuquerque Center
06:25PM 33.4192 -112.4200 275° West 337 388 15,000 3,000 Climbing Albuquerque Center
06:26PM 33.4306 -112.5414 276° West 363 418 18,300 3,240 Climbing Albuquerque Center
06:27PM 33.4411 -112.6831 275° West 378 435 21,700 3,120 Climbing Albuquerque Center
06:28PM 33.4536 -112.8156 276° West 393 452 24,700 1,980 Climbing Albuquerque Center
06:29PM 33.4953 -112.9428 291° West 414 476 25,800 1,980 Climbing Albuquerque Center
06:30PM 33.5400 -113.0689 293° West 414 476 28,800 2,820 Climbing Albuquerque Center
06:31PM 33.5847 -113.1919 294° West 410 472 31,700 1,560 Climbing Albuquerque Center
06:32PM 33.6322 -113.3258 293° West 400 460 32,000 120 Climbing Albuquerque Center
06:33PM 33.6750 -113.4469 293° West 396 456 32,000  Level Albuquerque Center
06:34PM 33.7175 -113.5675 293° West 394 453 32,000  Level Albuquerque Center
06:35PM 33.7600 -113.6881 293° West 393 452 32,000  Level Albuquerque Center
06:36PM 33.8006 -113.8114 292° West 395 455 32,000  Level Albuquerque Center
06:37PM 33.8192 -113.9378 280° West 386 444 32,000  Level Albuquerque Center
06:38PM 33.8450 -114.0944 281° West 395 455 32,000  Level Albuquerque Center
06:39PM 33.8664 -114.2233 281° West 394 453 32,000  Level Albuquerque Center
06:40PM 33.8858 -114.3361 282° West 394 453 32,000  Level Albuquerque Center
06:41PM 33.8917 -114.3692 282° West 394 453 32,000  Level Los Angeles Center
06:42PM 33.9167 -114.5225 281° West 391 450 32,000  Level Los Angeles Center
06:43PM 33.9364 -114.6472 281° West 384 442 32,000  Level Los Angeles Center
06:44PM 33.9569 -114.7744 281° West 387 445 32,000  Level Los Angeles Center
06:45PM 33.9783 -114.9022 281° West 390 449 32,000  Level Los Angeles Center
06:46PM 33.9939 -115.0036 281° West 387 445 32,000  Level Los Angeles Center
06:47PM 34.0181 -115.1575 281° West 391 450 32,000  Level Los Angeles Center
06:48PM 34.0431 -115.3111 281° West 390 449 32,000  Level Los Angeles Center
06:49PM 34.0619 -115.4411 280° West 392 451 32,000  Level Los Angeles Center
06:50PM 34.0822 -115.5694 281° West 393 452 32,000  Level Los Angeles Center
06:51PM 34.1019 -115.6953 281° West 386 444 32,000  Level Los Angeles Center
06:52PM 34.1053 -115.8247 272° West 386 444 32,000  Level Los Angeles Center
06:53PM 34.0900 -115.9203 259° West 374 430 32,000  Level Los Angeles Center
06:54PM 34.0606 -116.1222 260° West 381 438 32,000  Level Los Angeles Center
06:55PM 34.0394 -116.2586 259° West 410 472 32,000 -600 Level Los Angeles Center
06:56PM 34.0194 -116.3944 260° West 412 474 30,800 -1,860 Descending Los Angeles Center
06:57PM 34.0022 -116.5228 261° West 396 456 28,200 -2,520 Descending Los Angeles Center
06:58PM 33.9914 -116.6575 264° West 404 465 25,600 -2,520 Descending Los Angeles Center
06:59PM 33.9806 -116.7886 264° West 397 457 23,100 -2,700 Descending Los Angeles Center
07:00PM 33.9667 -116.9000 261° West 365 420 20,800 -2,160 Descending Southern California TRACON
07:01PM 33.9667 -117.0167 270° West 345 397 19,400 -1,560 Descending Southern California TRACON
07:02PM 33.9500 -117.1333 260° West 318 366 17,700 -1,740 Descending Southern California TRACON
07:03PM 33.9500 -117.2333 270° West 313 360 15,900 -1,860 Descending Southern California TRACON
07:04PM 33.9333 -117.3167 256° West 313 360 14,200 -1,740 Descending Southern California TRACON
07:05PM 33.9500 -117.4167 281° West 311 358 12,600 -1,380 Descending Southern California TRACON
07:06PM 33.9833 -117.5167 292° West 294 338 11,500 -1,320 Descending Southern California TRACON
07:07PM 34.0167 -117.6167 292° West 340 391 10,000 -840 Descending Southern California TRACON
07:08PM 34.0167 -117.7000 270° West 272 313 9,900 -720 Descending Southern California TRACON
07:09PM 34.0167 -117.8000 270° West 281 323 8,600 -1,380 Descending Southern California TRACON
07:10PM 34.0000 -117.9000 259° West 282 325 7,200 -1,200 Descending Southern California TRACON
07:11PM 34.0000 -117.9833 270° West 278 320 6,200 -1,020 Descending Southern California TRACON
07:12PM 33.9833 -118.0833 259° West 275 316 5,200 -1,080 Descending Southern California TRACON
07:13PM 33.9789 -118.1442 265° West 274 315 4,200 -1,200 Descending Los Angeles Center
07:14PM 33.9708 -118.2247 263° West 251 289 3,000 -1,200 Descending Los Angeles Center
07:15PM 33.9625 -118.3000 262° West 202 232 1,800 -1,020 Descending Los Angeles Center
07:16PM 33.9583 -118.3461 264° West 166 191 1,000 -660 Descending Los Angeles Center
07:17PM 33.9550 -118.3867 264° West 139 160 400 -540 Descending Los Angeles Center
07:19PM 33.9333 -118.4000 270° West  Level FlightAware Approximate
07:26PM 33.9425 -118.4081 270° West  Level Estimated